sensor_id;sensor_type;location;lat;lon;timestamp;P1;durP1;ratioP1;P2;durP2;ratioP2
43996;SDS011;34318;45.818;15.964;2024-01-30T00:01:24;13.80;;;10.18;;
43996;SDS011;34318;45.818;15.964;2024-01-30T00:03:51;13.27;;;9.23;;
43996;SDS011;34318;45.818;15.964;2024-01-30T00:06:19;12.93;;;10.43;;
43996;SDS011;34318;45.818;15.964;2024-01-30T00:08:50;17.35;;;10.02;;
43996;SDS011;34318;45.818;15.964;2024-01-30T00:11:17;11.27;;;9.30;;
43996;SDS011;34318;45.818;15.964;2024-01-30T00:13:44;13.32;;;9.75;;
43996;SDS011;34318;45.818;15.964;2024-01-30T00:16:21;11.50;;;9.75;;
43996;SDS011;34318;45.818;15.964;2024-01-30T00:18:50;13.48;;;9.38;;
43996;SDS011;34318;45.818;15.964;2024-01-30T00:21:18;12.20;;;10.52;;
43996;SDS011;34318;45.818;15.964;2024-01-30T00:23:45;12.25;;;9.18;;
43996;SDS011;34318;45.818;15.964;2024-01-30T00:26:12;12.07;;;9.88;;
43996;SDS011;34318;45.818;15.964;2024-01-30T00:28:41;13.27;;;9.52;;
43996;SDS011;34318;45.818;15.964;2024-01-30T00:31:08;11.38;;;9.65;;
43996;SDS011;34318;45.818;15.964;2024-01-30T00:33:39;10.05;;;8.32;;
43996;SDS011;34318;45.818;15.964;2024-01-30T00:36:07;9.52;;;8.60;;
43996;SDS011;34318;45.818;15.964;2024-01-30T00:38:34;10.38;;;8.63;;
43996;SDS011;34318;45.818;15.964;2024-01-30T00:41:02;10.15;;;9.07;;
43996;SDS011;34318;45.818;15.964;2024-01-30T00:43:29;10.77;;;8.80;;
43996;SDS011;34318;45.818;15.964;2024-01-30T00:45:58;9.02;;;8.07;;
43996;SDS011;34318;45.818;15.964;2024-01-30T00:48:25;9.32;;;8.23;;
43996;SDS011;34318;45.818;15.964;2024-01-30T00:50:53;11.52;;;8.57;;
43996;SDS011;34318;45.818;15.964;2024-01-30T00:53:21;10.25;;;8.80;;
43996;SDS011;34318;45.818;15.964;2024-01-30T00:55:48;9.43;;;8.40;;
43996;SDS011;34318;45.818;15.964;2024-01-30T00:58:15;10.88;;;8.32;;
43996;SDS011;34318;45.818;15.964;2024-01-30T01:00:42;9.15;;;7.82;;
43996;SDS011;34318;45.818;15.964;2024-01-30T01:03:10;8.88;;;7.97;;
43996;SDS011;34318;45.818;15.964;2024-01-30T01:05:37;9.10;;;7.75;;
43996;SDS011;34318;45.818;15.964;2024-01-30T01:08:05;8.52;;;7.72;;
43996;SDS011;34318;45.818;15.964;2024-01-30T01:10:32;8.45;;;7.65;;
43996;SDS011;34318;45.818;15.964;2024-01-30T01:12:59;8.68;;;7.65;;
43996;SDS011;34318;45.818;15.964;2024-01-30T01:15:27;9.77;;;8.63;;
43996;SDS011;34318;45.818;15.964;2024-01-30T01:17:55;9.52;;;8.27;;
43996;SDS011;34318;45.818;15.964;2024-01-30T01:20:23;8.75;;;7.85;;
43996;SDS011;34318;45.818;15.964;2024-01-30T01:22:50;9.10;;;8.20;;
43996;SDS011;34318;45.818;15.964;2024-01-30T01:25:19;9.68;;;7.95;;
43996;SDS011;34318;45.818;15.964;2024-01-30T01:27:46;7.97;;;7.18;;
43996;SDS011;34318;45.818;15.964;2024-01-30T01:30:18;8.93;;;8.02;;
43996;SDS011;34318;45.818;15.964;2024-01-30T01:32:48;8.60;;;7.70;;
43996;SDS011;34318;45.818;15.964;2024-01-30T01:35:27;8.88;;;7.90;;
43996;SDS011;34318;45.818;15.964;2024-01-30T01:37:54;9.02;;;8.13;;
43996;SDS011;34318;45.818;15.964;2024-01-30T01:40:22;8.35;;;7.43;;
43996;SDS011;34318;45.818;15.964;2024-01-30T01:42:50;9.52;;;7.18;;
43996;SDS011;34318;45.818;15.964;2024-01-30T01:45:20;8.25;;;7.45;;
43996;SDS011;34318;45.818;15.964;2024-01-30T01:47:50;8.27;;;7.32;;
43996;SDS011;34318;45.818;15.964;2024-01-30T01:50:18;9.02;;;7.05;;
43996;SDS011;34318;45.818;15.964;2024-01-30T01:52:48;8.43;;;7.53;;
43996;SDS011;34318;45.818;15.964;2024-01-30T01:55:16;8.20;;;7.32;;
43996;SDS011;34318;45.818;15.964;2024-01-30T01:57:45;9.43;;;8.02;;
43996;SDS011;34318;45.818;15.964;2024-01-30T02:00:12;7.88;;;7.07;;
43996;SDS011;34318;45.818;15.964;2024-01-30T02:02:40;7.65;;;6.93;;
43996;SDS011;34318;45.818;15.964;2024-01-30T02:05:08;7.43;;;6.72;;
43996;SDS011;34318;45.818;15.964;2024-01-30T02:07:35;8.23;;;7.43;;
43996;SDS011;34318;45.818;15.964;2024-01-30T02:10:03;9.07;;;8.15;;
43996;SDS011;34318;45.818;15.964;2024-01-30T02:12:30;8.27;;;7.28;;
43996;SDS011;34318;45.818;15.964;2024-01-30T02:14:57;8.05;;;7.25;;
43996;SDS011;34318;45.818;15.964;2024-01-30T02:17:25;8.10;;;7.30;;
43996;SDS011;34318;45.818;15.964;2024-01-30T02:19:52;9.07;;;7.07;;
43996;SDS011;34318;45.818;15.964;2024-01-30T02:22:20;8.50;;;7.30;;
43996;SDS011;34318;45.818;15.964;2024-01-30T02:24:48;8.15;;;7.10;;
43996;SDS011;34318;45.818;15.964;2024-01-30T02:27:15;7.93;;;6.63;;
43996;SDS011;34318;45.818;15.964;2024-01-30T02:29:42;9.73;;;7.75;;
43996;SDS011;34318;45.818;15.964;2024-01-30T02:32:09;7.30;;;6.60;;
43996;SDS011;34318;45.818;15.964;2024-01-30T02:34:36;7.50;;;6.80;;
43996;SDS011;34318;45.818;15.964;2024-01-30T02:37:04;7.80;;;7.00;;
43996;SDS011;34318;45.818;15.964;2024-01-30T02:39:31;7.97;;;6.90;;
43996;SDS011;34318;45.818;15.964;2024-01-30T02:41:58;7.43;;;6.63;;
43996;SDS011;34318;45.818;15.964;2024-01-30T02:44:26;7.43;;;6.72;;
43996;SDS011;34318;45.818;15.964;2024-01-30T02:46:53;8.90;;;7.38;;
43996;SDS011;34318;45.818;15.964;2024-01-30T02:49:21;7.22;;;6.53;;
43996;SDS011;34318;45.818;15.964;2024-01-30T02:51:50;6.63;;;6.03;;
43996;SDS011;34318;45.818;15.964;2024-01-30T02:54:17;7.70;;;6.90;;
43996;SDS011;34318;45.818;15.964;2024-01-30T02:56:44;7.75;;;7.03;;
43996;SDS011;34318;45.818;15.964;2024-01-30T02:59:12;7.65;;;6.85;;
43996;SDS011;34318;45.818;15.964;2024-01-30T03:05:11;7.72;;;6.47;;
43996;SDS011;34318;45.818;15.964;2024-01-30T03:07:38;8.32;;;6.93;;
43996;SDS011;34318;45.818;15.964;2024-01-30T03:10:05;7.80;;;6.53;;
43996;SDS011;34318;45.818;15.964;2024-01-30T03:12:33;7.38;;;6.68;;
43996;SDS011;34318;45.818;15.964;2024-01-30T03:15:00;8.35;;;7.55;;
43996;SDS011;34318;45.818;15.964;2024-01-30T03:17:27;7.03;;;6.32;;
43996;SDS011;34318;45.818;15.964;2024-01-30T03:19:54;11.18;;;7.38;;
43996;SDS011;34318;45.818;15.964;2024-01-30T03:22:22;6.35;;;5.75;;
43996;SDS011;34318;45.818;15.964;2024-01-30T03:24:50;6.95;;;6.25;;
43996;SDS011;34318;45.818;15.964;2024-01-30T03:27:17;8.15;;;6.30;;
43996;SDS011;34318;45.818;15.964;2024-01-30T03:29:44;9.15;;;6.43;;
43996;SDS011;34318;45.818;15.964;2024-01-30T03:32:11;6.65;;;6.03;;
43996;SDS011;34318;45.818;15.964;2024-01-30T03:34:39;7.20;;;6.50;;
43996;SDS011;34318;45.818;15.964;2024-01-30T03:37:06;6.97;;;6.38;;
43996;SDS011;34318;45.818;15.964;2024-01-30T03:39:34;6.75;;;6.15;;
43996;SDS011;34318;45.818;15.964;2024-01-30T03:42:02;7.50;;;6.80;;
43996;SDS011;34318;45.818;15.964;2024-01-30T03:44:30;8.32;;;6.65;;
43996;SDS011;34318;45.818;15.964;2024-01-30T03:46:57;8.20;;;6.25;;
43996;SDS011;34318;45.818;15.964;2024-01-30T03:49:24;7.43;;;6.55;;
43996;SDS011;34318;45.818;15.964;2024-01-30T03:51:52;6.85;;;6.25;;
43996;SDS011;34318;45.818;15.964;2024-01-30T03:54:19;10.60;;;6.38;;
43996;SDS011;34318;45.818;15.964;2024-01-30T03:56:46;6.88;;;6.18;;
43996;SDS011;34318;45.818;15.964;2024-01-30T03:59:13;9.07;;;6.45;;
43996;SDS011;34318;45.818;15.964;2024-01-30T04:01:41;6.75;;;6.15;;
43996;SDS011;34318;45.818;15.964;2024-01-30T04:04:08;6.80;;;5.78;;
43996;SDS011;34318;45.818;15.964;2024-01-30T04:06:36;7.15;;;6.45;;
43996;SDS011;34318;45.818;15.964;2024-01-30T04:09:04;6.85;;;6.15;;
43996;SDS011;34318;45.818;15.964;2024-01-30T04:11:31;6.65;;;5.95;;
43996;SDS011;34318;45.818;15.964;2024-01-30T04:13:58;7.35;;;6.32;;
43996;SDS011;34318;45.818;15.964;2024-01-30T04:16:25;6.68;;;6.07;;
43996;SDS011;34318;45.818;15.964;2024-01-30T04:18:53;6.60;;;6.00;;
43996;SDS011;34318;45.818;15.964;2024-01-30T04:21:20;7.55;;;6.28;;
43996;SDS011;34318;45.818;15.964;2024-01-30T04:23:48;6.65;;;6.05;;
43996;SDS011;34318;45.818;15.964;2024-01-30T04:26:15;6.22;;;5.68;;
43996;SDS011;34318;45.818;15.964;2024-01-30T04:28:45;6.82;;;5.72;;
43996;SDS011;34318;45.818;15.964;2024-01-30T04:31:13;7.00;;;6.30;;
43996;SDS011;34318;45.818;15.964;2024-01-30T04:33:40;6.10;;;5.50;;
43996;SDS011;34318;45.818;15.964;2024-01-30T04:36:08;6.68;;;5.93;;
43996;SDS011;34318;45.818;15.964;2024-01-30T04:38:38;6.63;;;6.03;;
43996;SDS011;34318;45.818;15.964;2024-01-30T04:41:06;6.80;;;5.85;;
43996;SDS011;34318;45.818;15.964;2024-01-30T04:43:33;5.75;;;5.15;;
43996;SDS011;34318;45.818;15.964;2024-01-30T04:46:00;6.30;;;5.68;;
43996;SDS011;34318;45.818;15.964;2024-01-30T04:48:28;7.05;;;6.35;;
43996;SDS011;34318;45.818;15.964;2024-01-30T04:50:55;6.57;;;5.97;;
43996;SDS011;34318;45.818;15.964;2024-01-30T04:53:23;6.70;;;6.10;;
43996;SDS011;34318;45.818;15.964;2024-01-30T04:55:50;7.15;;;5.97;;
43996;SDS011;34318;45.818;15.964;2024-01-30T04:58:17;6.22;;;5.65;;
43996;SDS011;34318;45.818;15.964;2024-01-30T05:00:44;5.82;;;5.32;;
43996;SDS011;34318;45.818;15.964;2024-01-30T05:03:14;6.38;;;5.72;;
43996;SDS011;34318;45.818;15.964;2024-01-30T05:05:42;6.25;;;5.53;;
43996;SDS011;34318;45.818;15.964;2024-01-30T05:08:10;6.82;;;5.50;;
43996;SDS011;34318;45.818;15.964;2024-01-30T05:10:37;6.45;;;5.85;;
43996;SDS011;34318;45.818;15.964;2024-01-30T05:13:04;6.00;;;5.43;;
43996;SDS011;34318;45.818;15.964;2024-01-30T05:15:32;6.13;;;5.50;;
43996;SDS011;34318;45.818;15.964;2024-01-30T05:17:59;6.22;;;5.63;;
43996;SDS011;34318;45.818;15.964;2024-01-30T05:20:27;6.40;;;5.68;;
43996;SDS011;34318;45.818;15.964;2024-01-30T05:22:54;6.00;;;5.47;;
43996;SDS011;34318;45.818;15.964;2024-01-30T05:25:22;5.95;;;5.43;;
43996;SDS011;34318;45.818;15.964;2024-01-30T05:27:49;6.57;;;5.97;;
43996;SDS011;34318;45.818;15.964;2024-01-30T05:30:17;8.13;;;5.43;;
43996;SDS011;34318;45.818;15.964;2024-01-30T05:32:44;6.03;;;5.53;;
43996;SDS011;34318;45.818;15.964;2024-01-30T05:35:11;7.15;;;5.90;;
43996;SDS011;34318;45.818;15.964;2024-01-30T05:37:39;9.38;;;6.40;;
43996;SDS011;34318;45.818;15.964;2024-01-30T05:40:06;6.88;;;5.80;;
43996;SDS011;34318;45.818;15.964;2024-01-30T05:42:34;6.82;;;6.22;;
43996;SDS011;34318;45.818;15.964;2024-01-30T05:45:01;6.72;;;6.03;;
43996;SDS011;34318;45.818;15.964;2024-01-30T05:47:29;9.02;;;6.50;;
43996;SDS011;34318;45.818;15.964;2024-01-30T05:49:57;6.38;;;5.68;;
43996;SDS011;34318;45.818;15.964;2024-01-30T05:52:24;6.93;;;5.95;;
43996;SDS011;34318;45.818;15.964;2024-01-30T05:54:52;7.03;;;5.88;;
43996;SDS011;34318;45.818;15.964;2024-01-30T05:57:19;8.77;;;7.45;;
43996;SDS011;34318;45.818;15.964;2024-01-30T05:59:46;8.30;;;7.30;;
43996;SDS011;34318;45.818;15.964;2024-01-30T06:02:14;9.38;;;7.32;;
43996;SDS011;34318;45.818;15.964;2024-01-30T06:04:41;9.30;;;7.88;;
43996;SDS011;34318;45.818;15.964;2024-01-30T06:07:09;11.85;;;8.32;;
43996;SDS011;34318;45.818;15.964;2024-01-30T06:09:36;10.82;;;7.68;;
43996;SDS011;34318;45.818;15.964;2024-01-30T06:12:05;10.25;;;7.20;;
43996;SDS011;34318;45.818;15.964;2024-01-30T06:14:32;8.10;;;7.25;;
43996;SDS011;34318;45.818;15.964;2024-01-30T06:16:59;9.88;;;7.53;;
43996;SDS011;34318;45.818;15.964;2024-01-30T06:19:26;8.57;;;7.68;;
43996;SDS011;34318;45.818;15.964;2024-01-30T06:21:54;9.18;;;6.80;;
43996;SDS011;34318;45.818;15.964;2024-01-30T06:24:21;8.82;;;7.40;;
43996;SDS011;34318;45.818;15.964;2024-01-30T06:26:48;14.52;;;8.05;;
43996;SDS011;34318;45.818;15.964;2024-01-30T06:29:16;12.38;;;8.20;;
43996;SDS011;34318;45.818;15.964;2024-01-30T06:31:45;8.57;;;7.68;;
43996;SDS011;34318;45.818;15.964;2024-01-30T06:34:12;11.55;;;8.85;;
43996;SDS011;34318;45.818;15.964;2024-01-30T06:36:40;13.02;;;9.23;;
43996;SDS011;34318;45.818;15.964;2024-01-30T06:39:08;11.18;;;8.85;;
43996;SDS011;34318;45.818;15.964;2024-01-30T06:41:35;12.00;;;7.80;;
43996;SDS011;34318;45.818;15.964;2024-01-30T06:44:02;20.60;;;10.00;;
43996;SDS011;34318;45.818;15.964;2024-01-30T06:46:35;10.63;;;9.15;;
43996;SDS011;34318;45.818;15.964;2024-01-30T06:49:03;12.93;;;8.95;;
43996;SDS011;34318;45.818;15.964;2024-01-30T06:51:31;12.50;;;8.10;;
43996;SDS011;34318;45.818;15.964;2024-01-30T06:53:58;11.20;;;7.85;;
43996;SDS011;34318;45.818;15.964;2024-01-30T06:56:25;9.40;;;7.05;;
43996;SDS011;34318;45.818;15.964;2024-01-30T06:58:52;11.43;;;9.43;;
43996;SDS011;34318;45.818;15.964;2024-01-30T07:01:20;19.70;;;9.02;;
43996;SDS011;34318;45.818;15.964;2024-01-30T07:03:47;12.80;;;7.88;;
43996;SDS011;34318;45.818;15.964;2024-01-30T07:06:14;9.88;;;8.15;;
43996;SDS011;34318;45.818;15.964;2024-01-30T07:08:42;10.75;;;8.40;;
43996;SDS011;34318;45.818;15.964;2024-01-30T07:11:09;11.00;;;8.55;;
43996;SDS011;34318;45.818;15.964;2024-01-30T07:13:38;11.70;;;9.23;;
43996;SDS011;34318;45.818;15.964;2024-01-30T07:16:05;10.07;;;8.05;;
43996;SDS011;34318;45.818;15.964;2024-01-30T07:18:33;8.68;;;7.75;;
43996;SDS011;34318;45.818;15.964;2024-01-30T07:21:00;11.48;;;9.35;;
43996;SDS011;34318;45.818;15.964;2024-01-30T07:23:27;9.45;;;8.43;;
43996;SDS011;34318;45.818;15.964;2024-01-30T07:25:55;12.65;;;8.95;;
43996;SDS011;34318;45.818;15.964;2024-01-30T07:28:23;13.70;;;8.68;;
43996;SDS011;34318;45.818;15.964;2024-01-30T07:30:51;13.43;;;9.25;;
43996;SDS011;34318;45.818;15.964;2024-01-30T07:33:18;11.63;;;8.93;;
43996;SDS011;34318;45.818;15.964;2024-01-30T07:35:45;14.65;;;8.93;;
43996;SDS011;34318;45.818;15.964;2024-01-30T07:38:13;10.05;;;7.63;;
43996;SDS011;34318;45.818;15.964;2024-01-30T07:40:40;9.73;;;8.73;;
43996;SDS011;34318;45.818;15.964;2024-01-30T07:43:07;11.52;;;8.88;;
43996;SDS011;34318;45.818;15.964;2024-01-30T07:45:35;9.82;;;8.85;;
43996;SDS011;34318;45.818;15.964;2024-01-30T07:48:06;13.43;;;8.95;;
43996;SDS011;34318;45.818;15.964;2024-01-30T07:50:34;10.90;;;9.13;;
43996;SDS011;34318;45.818;15.964;2024-01-30T07:53:01;10.45;;;8.75;;
43996;SDS011;34318;45.818;15.964;2024-01-30T07:55:29;11.02;;;9.15;;
43996;SDS011;34318;45.818;15.964;2024-01-30T07:57:58;12.07;;;8.57;;
43996;SDS011;34318;45.818;15.964;2024-01-30T08:00:26;12.35;;;9.55;;
43996;SDS011;34318;45.818;15.964;2024-01-30T08:02:55;11.73;;;8.60;;
43996;SDS011;34318;45.818;15.964;2024-01-30T08:05:23;12.73;;;8.77;;
43996;SDS011;34318;45.818;15.964;2024-01-30T08:07:50;9.20;;;8.07;;
43996;SDS011;34318;45.818;15.964;2024-01-30T08:10:18;11.88;;;9.60;;
43996;SDS011;34318;45.818;15.964;2024-01-30T08:12:45;11.98;;;9.30;;
43996;SDS011;34318;45.818;15.964;2024-01-30T08:15:13;14.43;;;9.70;;
43996;SDS011;34318;45.818;15.964;2024-01-30T08:17:40;14.18;;;9.93;;
43996;SDS011;34318;45.818;15.964;2024-01-30T08:20:08;10.93;;;9.50;;
43996;SDS011;34318;45.818;15.964;2024-01-30T08:22:40;11.82;;;10.27;;
43996;SDS011;34318;45.818;15.964;2024-01-30T08:25:08;11.82;;;10.02;;
43996;SDS011;34318;45.818;15.964;2024-01-30T08:27:36;9.68;;;8.70;;
43996;SDS011;34318;45.818;15.964;2024-01-30T08:30:07;12.70;;;8.98;;
43996;SDS011;34318;45.818;15.964;2024-01-30T08:32:35;13.95;;;10.95;;
43996;SDS011;34318;45.818;15.964;2024-01-30T08:35:02;11.07;;;10.07;;
43996;SDS011;34318;45.818;15.964;2024-01-30T08:37:30;11.88;;;10.73;;
43996;SDS011;34318;45.818;15.964;2024-01-30T08:39:57;11.57;;;10.38;;
43996;SDS011;34318;45.818;15.964;2024-01-30T08:42:25;12.27;;;10.60;;
43996;SDS011;34318;45.818;15.964;2024-01-30T08:44:53;11.32;;;10.25;;
43996;SDS011;34318;45.818;15.964;2024-01-30T08:47:21;11.88;;;10.35;;
43996;SDS011;34318;45.818;15.964;2024-01-30T08:49:49;11.20;;;10.15;;
43996;SDS011;34318;45.818;15.964;2024-01-30T08:52:17;11.70;;;10.50;;
43996;SDS011;34318;45.818;15.964;2024-01-30T08:54:45;12.77;;;10.68;;
43996;SDS011;34318;45.818;15.964;2024-01-30T08:57:12;12.18;;;10.40;;
43996;SDS011;34318;45.818;15.964;2024-01-30T08:59:39;11.98;;;10.77;;
43996;SDS011;34318;45.818;15.964;2024-01-30T09:02:07;14.32;;;11.15;;
43996;SDS011;34318;45.818;15.964;2024-01-30T09:04:38;12.57;;;10.80;;
43996;SDS011;34318;45.818;15.964;2024-01-30T09:07:06;12.55;;;11.35;;
43996;SDS011;34318;45.818;15.964;2024-01-30T09:09:39;12.27;;;10.98;;
43996;SDS011;34318;45.818;15.964;2024-01-30T09:12:07;13.02;;;11.65;;
43996;SDS011;34318;45.818;15.964;2024-01-30T09:14:36;12.73;;;11.63;;
43996;SDS011;34318;45.818;15.964;2024-01-30T09:17:03;12.02;;;10.82;;
43996;SDS011;34318;45.818;15.964;2024-01-30T09:19:31;13.02;;;11.52;;
43996;SDS011;34318;45.818;15.964;2024-01-30T09:21:59;12.65;;;11.45;;
43996;SDS011;34318;45.818;15.964;2024-01-30T09:24:26;12.45;;;11.15;;
43996;SDS011;34318;45.818;15.964;2024-01-30T09:26:54;13.95;;;11.52;;
43996;SDS011;34318;45.818;15.964;2024-01-30T09:29:21;11.85;;;10.80;;
43996;SDS011;34318;45.818;15.964;2024-01-30T09:31:48;12.20;;;11.02;;
43996;SDS011;34318;45.818;15.964;2024-01-30T09:34:16;11.85;;;10.75;;
43996;SDS011;34318;45.818;15.964;2024-01-30T09:36:43;12.32;;;11.02;;
43996;SDS011;34318;45.818;15.964;2024-01-30T09:39:10;11.38;;;10.27;;
43996;SDS011;34318;45.818;15.964;2024-01-30T09:44:25;11.77;;;10.73;;
43996;SDS011;34318;45.818;15.964;2024-01-30T09:46:55;12.85;;;11.40;;
43996;SDS011;34318;45.818;15.964;2024-01-30T09:49:24;13.10;;;11.80;;
43996;SDS011;34318;45.818;15.964;2024-01-30T09:51:53;12.07;;;10.88;;
43996;SDS011;34318;45.818;15.964;2024-01-30T09:54:22;11.68;;;10.52;;
43996;SDS011;34318;45.818;15.964;2024-01-30T09:56:49;13.02;;;11.73;;
43996;SDS011;34318;45.818;15.964;2024-01-30T09:59:16;13.45;;;11.82;;
43996;SDS011;34318;45.818;15.964;2024-01-30T10:01:43;12.20;;;10.90;;
43996;SDS011;34318;45.818;15.964;2024-01-30T10:04:11;12.52;;;11.43;;
43996;SDS011;34318;45.818;15.964;2024-01-30T10:06:39;12.30;;;11.10;;
43996;SDS011;34318;45.818;15.964;2024-01-30T10:09:07;12.60;;;11.05;;
43996;SDS011;34318;45.818;15.964;2024-01-30T10:11:37;12.88;;;11.68;;
43996;SDS011;34318;45.818;15.964;2024-01-30T10:14:04;12.73;;;11.60;;
43996;SDS011;34318;45.818;15.964;2024-01-30T10:16:31;12.50;;;11.27;;
43996;SDS011;34318;45.818;15.964;2024-01-30T10:18:59;13.25;;;11.88;;
43996;SDS011;34318;45.818;15.964;2024-01-30T10:21:26;13.45;;;11.95;;
43996;SDS011;34318;45.818;15.964;2024-01-30T10:23:53;14.07;;;12.75;;
43996;SDS011;34318;45.818;15.964;2024-01-30T10:26:21;12.82;;;11.63;;
43996;SDS011;34318;45.818;15.964;2024-01-30T10:28:48;13.00;;;11.63;;
43996;SDS011;34318;45.818;15.964;2024-01-30T10:31:16;12.40;;;11.15;;
43996;SDS011;34318;45.818;15.964;2024-01-30T10:33:44;12.05;;;10.88;;
43996;SDS011;34318;45.818;15.964;2024-01-30T10:36:13;12.90;;;11.70;;
43996;SDS011;34318;45.818;15.964;2024-01-30T10:38:44;12.15;;;10.95;;
43996;SDS011;34318;45.818;15.964;2024-01-30T10:41:12;12.75;;;11.45;;
43996;SDS011;34318;45.818;15.964;2024-01-30T10:43:42;12.65;;;11.38;;
43996;SDS011;34318;45.818;15.964;2024-01-30T10:46:20;11.77;;;10.57;;
43996;SDS011;34318;45.818;15.964;2024-01-30T10:48:57;12.45;;;11.25;;
43996;SDS011;34318;45.818;15.964;2024-01-30T10:51:28;12.98;;;11.77;;
43996;SDS011;34318;45.818;15.964;2024-01-30T10:53:56;13.30;;;11.95;;
43996;SDS011;34318;45.818;15.964;2024-01-30T10:56:24;16.02;;;11.48;;
43996;SDS011;34318;45.818;15.964;2024-01-30T10:58:52;13.60;;;11.70;;
43996;SDS011;34318;45.818;15.964;2024-01-30T11:01:20;12.85;;;11.45;;
43996;SDS011;34318;45.818;15.964;2024-01-30T11:03:52;13.23;;;11.32;;
43996;SDS011;34318;45.818;15.964;2024-01-30T11:06:23;13.60;;;12.13;;
43996;SDS011;34318;45.818;15.964;2024-01-30T11:09:04;13.75;;;12.27;;
43996;SDS011;34318;45.818;15.964;2024-01-30T11:11:49;11.95;;;10.75;;
43996;SDS011;34318;45.818;15.964;2024-01-30T11:14:22;11.32;;;10.13;;
43996;SDS011;34318;45.818;15.964;2024-01-30T11:16:50;13.23;;;11.80;;
43996;SDS011;34318;45.818;15.964;2024-01-30T11:19:23;12.20;;;11.00;;
43996;SDS011;34318;45.818;15.964;2024-01-30T11:21:52;15.57;;;10.55;;
43996;SDS011;34318;45.818;15.964;2024-01-30T11:24:20;13.10;;;11.48;;
43996;SDS011;34318;45.818;15.964;2024-01-30T11:26:56;14.82;;;11.15;;
43996;SDS011;34318;45.818;15.964;2024-01-30T11:29:24;12.48;;;11.27;;
43996;SDS011;34318;45.818;15.964;2024-01-30T11:31:52;18.77;;;11.98;;
43996;SDS011;34318;45.818;15.964;2024-01-30T11:34:20;12.65;;;11.40;;
43996;SDS011;34318;45.818;15.964;2024-01-30T11:36:51;13.88;;;12.00;;
43996;SDS011;34318;45.818;15.964;2024-01-30T11:39:21;13.25;;;11.93;;
43996;SDS011;34318;45.818;15.964;2024-01-30T11:41:50;12.65;;;11.35;;
43996;SDS011;34318;45.818;15.964;2024-01-30T11:44:21;12.10;;;11.00;;
43996;SDS011;34318;45.818;15.964;2024-01-30T11:46:48;16.08;;;11.57;;
43996;SDS011;34318;45.818;15.964;2024-01-30T11:49:16;15.07;;;11.90;;
43996;SDS011;34318;45.818;15.964;2024-01-30T11:51:47;15.98;;;12.50;;
43996;SDS011;34318;45.818;15.964;2024-01-30T11:54:20;13.43;;;12.05;;
43996;SDS011;34318;45.818;15.964;2024-01-30T11:56:48;13.05;;;11.75;;
43996;SDS011;34318;45.818;15.964;2024-01-30T11:59:15;13.32;;;11.77;;
43996;SDS011;34318;45.818;15.964;2024-01-30T12:01:42;12.27;;;11.07;;
43996;SDS011;34318;45.818;15.964;2024-01-30T12:04:09;13.35;;;11.77;;
43996;SDS011;34318;45.818;15.964;2024-01-30T12:06:37;13.73;;;12.35;;
43996;SDS011;34318;45.818;15.964;2024-01-30T12:09:05;14.95;;;12.18;;
43996;SDS011;34318;45.818;15.964;2024-01-30T12:11:47;12.70;;;11.57;;
43996;SDS011;34318;45.818;15.964;2024-01-30T12:14:16;12.35;;;11.02;;
43996;SDS011;34318;45.818;15.964;2024-01-30T12:16:43;12.70;;;11.50;;
43996;SDS011;34318;45.818;15.964;2024-01-30T12:19:11;14.00;;;12.02;;
43996;SDS011;34318;45.818;15.964;2024-01-30T12:21:38;13.23;;;11.85;;
43996;SDS011;34318;45.818;15.964;2024-01-30T12:24:05;12.38;;;11.18;;
43996;SDS011;34318;45.818;15.964;2024-01-30T12:26:33;13.32;;;12.02;;
43996;SDS011;34318;45.818;15.964;2024-01-30T12:29:03;13.43;;;11.55;;
43996;SDS011;34318;45.818;15.964;2024-01-30T12:31:32;12.77;;;11.48;;
43996;SDS011;34318;45.818;15.964;2024-01-30T12:34:00;12.55;;;11.25;;
43996;SDS011;34318;45.818;15.964;2024-01-30T12:36:28;12.45;;;11.05;;
43996;SDS011;34318;45.818;15.964;2024-01-30T12:38:57;11.90;;;10.80;;
43996;SDS011;34318;45.818;15.964;2024-01-30T12:41:25;12.95;;;11.52;;
43996;SDS011;34318;45.818;15.964;2024-01-30T12:43:57;14.43;;;11.60;;
43996;SDS011;34318;45.818;15.964;2024-01-30T12:46:27;15.63;;;13.68;;
43996;SDS011;34318;45.818;15.964;2024-01-30T12:48:55;23.85;;;15.52;;
43996;SDS011;34318;45.818;15.964;2024-01-30T12:51:23;35.72;;;22.60;;
43996;SDS011;34318;45.818;15.964;2024-01-30T12:53:50;43.65;;;26.77;;
43996;SDS011;34318;45.818;15.964;2024-01-30T12:56:18;124.95;;;60.80;;
43996;SDS011;34318;45.818;15.964;2024-01-30T12:58:45;85.55;;;44.97;;
43996;SDS011;34318;45.818;15.964;2024-01-30T13:01:17;94.85;;;48.50;;
43996;SDS011;34318;45.818;15.964;2024-01-30T13:03:44;79.40;;;45.97;;
43996;SDS011;34318;45.818;15.964;2024-01-30T13:06:11;77.55;;;42.92;;
43996;SDS011;34318;45.818;15.964;2024-01-30T13:08:39;76.35;;;46.63;;
43996;SDS011;34318;45.818;15.964;2024-01-30T13:11:06;79.35;;;46.63;;
43996;SDS011;34318;45.818;15.964;2024-01-30T13:13:43;76.97;;;45.13;;
43996;SDS011;34318;45.818;15.964;2024-01-30T13:16:10;78.05;;;46.47;;
43996;SDS011;34318;45.818;15.964;2024-01-30T13:18:38;65.88;;;41.75;;
43996;SDS011;34318;45.818;15.964;2024-01-30T13:21:05;71.80;;;44.03;;
43996;SDS011;34318;45.818;15.964;2024-01-30T13:23:32;70.75;;;41.63;;
43996;SDS011;34318;45.818;15.964;2024-01-30T13:25:59;77.03;;;41.95;;
43996;SDS011;34318;45.818;15.964;2024-01-30T13:28:27;66.05;;;39.22;;
43996;SDS011;34318;45.818;15.964;2024-01-30T13:30:54;63.05;;;38.40;;
43996;SDS011;34318;45.818;15.964;2024-01-30T13:33:21;68.85;;;39.30;;
43996;SDS011;34318;45.818;15.964;2024-01-30T13:35:49;64.10;;;37.58;;
43996;SDS011;34318;45.818;15.964;2024-01-30T13:38:16;56.08;;;36.08;;
43996;SDS011;34318;45.818;15.964;2024-01-30T13:40:43;52.13;;;34.92;;
43996;SDS011;34318;45.818;15.964;2024-01-30T13:43:11;59.70;;;33.17;;
43996;SDS011;34318;45.818;15.964;2024-01-30T13:45:38;54.33;;;32.88;;
43996;SDS011;34318;45.818;15.964;2024-01-30T13:48:06;55.00;;;31.35;;
43996;SDS011;34318;45.818;15.964;2024-01-30T13:50:33;51.20;;;30.70;;
43996;SDS011;34318;45.818;15.964;2024-01-30T13:53:01;50.95;;;31.25;;
43996;SDS011;34318;45.818;15.964;2024-01-30T13:55:29;49.40;;;28.95;;
43996;SDS011;34318;45.818;15.964;2024-01-30T13:57:56;52.63;;;29.60;;
43996;SDS011;34318;45.818;15.964;2024-01-30T14:00:24;50.85;;;28.70;;
43996;SDS011;34318;45.818;15.964;2024-01-30T14:02:52;48.72;;;29.10;;
43996;SDS011;34318;45.818;15.964;2024-01-30T14:05:24;49.92;;;30.70;;
43996;SDS011;34318;45.818;15.964;2024-01-30T14:07:52;52.45;;;28.95;;
43996;SDS011;34318;45.818;15.964;2024-01-30T14:10:20;40.83;;;27.65;;
43996;SDS011;34318;45.818;15.964;2024-01-30T14:12:47;52.13;;;29.25;;
43996;SDS011;34318;45.818;15.964;2024-01-30T14:15:14;41.85;;;28.00;;
43996;SDS011;34318;45.818;15.964;2024-01-30T14:17:54;43.03;;;26.55;;
43996;SDS011;34318;45.818;15.964;2024-01-30T14:20:22;43.22;;;27.55;;
43996;SDS011;34318;45.818;15.964;2024-01-30T14:22:50;40.60;;;26.20;;
43996;SDS011;34318;45.818;15.964;2024-01-30T14:25:19;42.55;;;26.05;;
43996;SDS011;34318;45.818;15.964;2024-01-30T14:27:46;40.10;;;27.90;;
43996;SDS011;34318;45.818;15.964;2024-01-30T14:30:14;43.20;;;31.55;;
43996;SDS011;34318;45.818;15.964;2024-01-30T14:32:41;51.10;;;35.08;;